createdAt,value
2023-02-14T00:01:36.572Z,79.31
2023-02-14T00:08:48.292Z,79.84
2023-02-14T00:12:24.308Z,79.62
2023-02-14T00:15:58.617Z,79.69
2023-02-14T00:18:56.352Z,80.58
2023-02-14T00:24:42.576Z,80.80
2023-02-14T00:28:04.416Z,81.03
2023-02-14T00:30:43.876Z,80.56
2023-02-14T00:36:42.229Z,80.90
2023-02-14T00:39:41.270Z,81.06
2023-02-14T00:42:09.135Z,81.14
2023-02-14T00:46:02.141Z,80.54
2023-02-14T00:53:16.390Z,81.07
2023-02-14T01:08:37.831Z,80.44
2023-02-14T01:14:47.887Z,79.84
2023-02-14T01:29:36.629Z,80.28
2023-02-14T01:33:03.800Z,80.02
2023-02-14T01:39:29.687Z,79.99
2023-02-14T01:41:58.842Z,80.35
2023-02-14T01:48:48.390Z,79.66
2023-02-14T01:51:19.946Z,79.34
2023-02-14T01:54:53.526Z,78.50
2023-02-14T01:58:04.228Z,78.61
2023-02-14T02:04:07.082Z,79.18
2023-02-14T02:06:42.306Z,79.70
2023-02-14T02:09:32.791Z,80.04
2023-02-14T02:40:57.940Z,80.76
2023-02-14T02:43:56.038Z,80.67
2023-02-14T02:46:34.453Z,81.13
2023-02-14T02:49:16.473Z,82.87
2023-02-14T02:51:54.453Z,84.79
2023-02-14T02:54:34.834Z,85.29
2023-02-14T02:57:13.549Z,85.25
2023-02-14T02:59:45.184Z,84.41
2023-02-14T03:02:20.459Z,83.03
2023-02-14T03:04:53.959Z,82.27
2023-02-14T03:07:29.484Z,81.15
2023-02-14T03:09:59.887Z,80.63
2023-02-14T03:12:57.486Z,80.32
2023-02-14T03:15:52.501Z,80.14
2023-02-14T03:18:43.853Z,80.16
2023-02-14T03:21:28.822Z,80.00
2023-02-14T03:24:09.365Z,80.23
2023-02-14T03:26:48.472Z,80.53
2023-02-14T03:29:27.665Z,80.66
2023-02-14T03:32:09.827Z,81.29
2023-02-14T03:34:48.097Z,82.37
2023-02-14T03:37:23.705Z,81.99
2023-02-14T03:40:01.662Z,82.29
2023-02-14T03:42:36.659Z,82.51
2023-02-14T03:45:12.223Z,82.04
2023-02-14T03:47:44.750Z,81.24
2023-02-14T03:50:19.611Z,81.05
2023-02-14T03:52:53.758Z,80.98
2023-02-14T03:55:30.345Z,81.20
2023-02-14T03:58:08.683Z,81.00
2023-02-14T04:00:42.439Z,80.82
2023-02-14T04:03:14.149Z,80.58
2023-02-14T04:05:42.496Z,80.46
2023-02-14T04:08:11.083Z,81.04
2023-02-14T04:10:38.818Z,81.90
2023-02-14T04:13:06.096Z,81.90
2023-02-14T04:15:33.026Z,81.58
2023-02-14T04:18:01.242Z,81.36
2023-02-14T04:20:28.972Z,82.16
2023-02-14T04:22:55.919Z,81.85
2023-02-14T04:25:23.024Z,81.88
2023-02-14T04:27:49.883Z,81.12
2023-02-14T04:30:18.176Z,80.54
2023-02-14T04:32:45.350Z,79.64
2023-02-14T04:35:14.593Z,79.43
2023-02-14T04:37:42.266Z,79.11
2023-02-14T04:40:10.770Z,79.31
2023-02-14T04:42:37.919Z,79.90
2023-02-14T04:45:05.372Z,80.62
2023-02-14T04:47:32.300Z,80.81
2023-02-14T04:49:59.162Z,80.65
2023-02-14T04:55:11.618Z,80.97
2023-02-14T04:57:59.724Z,81.48
2023-02-14T05:00:39.792Z,82.13
2023-02-14T05:03:06.908Z,82.34
2023-02-14T05:05:33.723Z,84.37
2023-02-14T05:08:01.950Z,85.42
2023-02-14T05:10:29.105Z,85.53
2023-02-14T05:12:56.074Z,85.93
2023-02-14T05:15:22.957Z,85.15
2023-02-14T05:17:49.747Z,86.68
2023-02-14T05:20:17.194Z,87.17
2023-02-14T05:22:44.168Z,86.45
2023-02-14T05:25:12.681Z,86.10
2023-02-14T05:27:39.526Z,85.42
2023-02-14T05:30:08.341Z,85.24
2023-02-14T05:32:35.176Z,85.70
2023-02-14T05:35:02.092Z,85.22
2023-02-14T05:37:28.942Z,85.47
2023-02-14T05:39:55.756Z,85.98
2023-02-14T05:42:24.156Z,85.26
2023-02-14T05:44:51.056Z,85.38
2023-02-14T05:47:17.856Z,85.10
2023-02-14T05:49:44.830Z,85.06
2023-02-14T05:55:54.235Z,84.16
2023-02-14T05:58:22.508Z,85.00
2023-02-14T06:00:49.270Z,85.06
2023-02-14T06:03:16.061Z,84.66
2023-02-14T06:05:42.974Z,84.39
2023-02-14T06:08:09.818Z,84.85
2023-02-14T06:10:36.842Z,85.88
2023-02-14T06:13:04.476Z,86.88
2023-02-14T06:15:32.749Z,87.08
2023-02-14T06:17:59.524Z,86.87
2023-02-14T06:20:26.376Z,87.06
2023-02-14T06:22:55.212Z,87.91
2023-02-14T06:25:23.461Z,89.00
2023-02-14T06:27:56.201Z,89.20
2023-02-14T06:30:24.749Z,90.88
2023-02-14T06:32:53.112Z,93.43
2023-02-14T06:35:23.364Z,93.73
2023-02-14T06:38:52.572Z,93.23
2023-02-14T06:41:19.705Z,92.82
2023-02-14T06:43:47.528Z,92.66
2023-02-14T06:46:15.043Z,92.26
2023-02-14T06:48:46.050Z,92.21
2023-02-14T06:51:17.049Z,91.21
2023-02-14T06:53:45.669Z,90.99
2023-02-14T06:56:12.922Z,91.19
2023-02-14T06:58:41.649Z,91.84
2023-02-14T07:01:11.186Z,92.24
2023-02-14T07:03:38.589Z,92.62
2023-02-14T07:06:07.101Z,92.43
2023-02-14T07:08:34.019Z,92.52
2023-02-14T07:11:01.264Z,92.68
2023-02-14T07:13:28.259Z,93.18
2023-02-14T07:15:55.178Z,92.60
2023-02-14T07:18:22.132Z,93.05
2023-02-14T07:20:56.156Z,92.63
2023-02-14T07:23:25.362Z,92.71
2023-02-14T07:25:52.979Z,93.17
2023-02-14T07:28:24.456Z,93.54
2023-02-14T07:31:00.132Z,93.80
2023-02-14T07:33:30.350Z,93.20
2023-02-14T07:36:00.503Z,93.08
2023-02-14T07:38:29.125Z,92.48
2023-02-14T07:40:56.061Z,92.60
2023-02-14T07:43:22.990Z,92.63
2023-02-14T07:45:50.071Z,93.16
2023-02-14T07:48:17.101Z,93.84
2023-02-14T07:50:44.295Z,93.08
2023-02-14T07:53:12.007Z,93.80
2023-02-14T07:55:40.647Z,93.07
2023-02-14T07:58:08.295Z,92.00
2023-02-14T08:00:35.586Z,91.49
2023-02-14T08:03:02.470Z,89.80
2023-02-14T08:05:29.405Z,90.72
2023-02-14T08:07:56.806Z,91.03
2023-02-14T08:10:24.323Z,91.63
2023-02-14T08:12:53.101Z,92.74
2023-02-14T08:15:20.315Z,92.61
2023-02-14T08:17:48.511Z,89.96
2023-02-14T08:20:15.558Z,91.06
2023-02-14T08:22:43.295Z,93.62
2023-02-14T08:25:10.520Z,93.13
2023-02-14T08:27:37.397Z,90.75
2023-02-14T08:30:08.650Z,90.75
2023-02-14T08:32:35.716Z,91.31
2023-02-14T08:35:02.737Z,90.54
2023-02-14T08:37:29.788Z,90.25
2023-02-14T08:39:57.013Z,91.25
2023-02-14T08:42:25.113Z,91.48
2023-02-14T08:44:52.334Z,91.08
2023-02-14T08:47:20.747Z,91.44
2023-02-14T08:49:47.861Z,91.74
2023-02-14T08:52:14.770Z,91.66
2023-02-14T08:54:41.603Z,91.07
2023-02-14T08:57:11.770Z,91.27
2023-02-14T08:59:47.531Z,91.83
2023-02-14T09:02:14.879Z,91.51
2023-02-14T09:05:01.809Z,91.37
2023-02-14T09:07:33.939Z,92.49
2023-02-14T09:10:02.138Z,92.35
2023-02-14T09:12:28.972Z,91.82
2023-02-14T09:14:56.746Z,91.40
2023-02-14T09:17:24.508Z,91.18
2023-02-14T09:19:52.704Z,90.92
2023-02-14T09:22:19.542Z,90.87
2023-02-14T09:24:46.430Z,90.86
2023-02-14T09:27:13.421Z,90.28
2023-02-14T09:29:40.414Z,90.57
2023-02-14T09:32:07.379Z,90.32
2023-02-14T09:34:35.502Z,88.82
2023-02-14T09:37:06.251Z,87.61
2023-02-14T09:39:33.253Z,87.83
2023-02-14T09:42:26.715Z,88.59
2023-02-14T09:45:00.309Z,88.30
2023-02-14T09:47:40.116Z,88.80
2023-02-14T09:50:20.310Z,88.09
2023-02-14T09:52:56.762Z,88.09
2023-02-14T09:55:42.508Z,88.13
2023-02-14T09:58:18.955Z,87.11
2023-02-14T10:00:55.011Z,85.62
2023-02-14T10:03:54.208Z,85.21
2023-02-14T10:06:43.527Z,83.58
2023-02-14T10:09:37.010Z,83.92
2023-02-14T10:12:11.727Z,84.90
2023-02-14T10:14:39.321Z,85.54
2023-02-14T10:17:15.574Z,84.11
2023-02-14T10:19:52.018Z,81.37
2023-02-14T10:22:26.872Z,77.36
2023-02-14T10:25:01.431Z,72.67
2023-02-14T10:27:34.884Z,68.67
2023-02-14T10:30:02.446Z,69.90
2023-02-14T10:32:39.947Z,68.10
2023-02-14T10:35:27.736Z,62.21
2023-02-14T10:38:07.771Z,59.60
2023-02-14T10:40:54.578Z,54.74
2023-02-14T10:43:38.742Z,55.13
2023-02-14T10:46:18.297Z,53.74
2023-02-14T10:48:59.252Z,50.88
2023-02-14T10:51:35.852Z,48.71
2023-02-14T10:54:20.618Z,45.71
2023-02-14T10:56:58.710Z,44.14
2023-02-14T10:59:35.317Z,43.71
2023-02-14T11:02:16.324Z,44.50
2023-02-14T11:04:46.147Z,44.87
2023-02-14T11:07:14.310Z,42.58
2023-02-14T11:09:41.270Z,41.61
2023-02-14T11:12:10.618Z,40.91
2023-02-14T11:14:39.983Z,40.34
2023-02-14T11:17:29.548Z,40.51
2023-02-14T11:19:59.363Z,39.32
2023-02-14T11:22:29.731Z,39.20
2023-02-14T11:25:06.811Z,39.60
2023-02-14T11:27:37.822Z,39.88
2023-02-14T11:30:21.690Z,40.44
2023-02-14T11:32:51.080Z,39.55
2023-02-14T11:35:22.356Z,39.00
2023-02-14T11:37:51.926Z,37.23
2023-02-14T11:40:30.752Z,36.76
2023-02-14T11:43:15.241Z,37.56
2023-02-14T11:45:45.556Z,38.63
2023-02-14T11:48:31.467Z,38.15
2023-02-14T11:51:07.367Z,38.15
2023-02-14T11:53:45.317Z,38.97
2023-02-14T11:56:15.005Z,38.25
2023-02-14T11:58:53.482Z,38.95
2023-02-14T12:01:25.651Z,40.48
2023-02-14T12:03:57.289Z,40.64
2023-02-14T12:06:27.934Z,40.99
2023-02-14T12:09:23.733Z,45.06
2023-02-14T12:11:56.222Z,49.78
2023-02-14T12:14:28.778Z,49.88
2023-02-14T12:17:04.405Z,51.42
2023-02-14T12:19:44.916Z,52.05
2023-02-14T12:22:17.837Z,51.36
2023-02-14T12:24:59.815Z,52.59
2023-02-14T12:27:33.718Z,53.61
2023-02-14T12:30:16.421Z,52.81
2023-02-14T12:32:49.987Z,52.40
2023-02-14T12:39:25.485Z,52.67
2023-02-14T12:42:12.020Z,53.76
2023-02-14T12:44:54.168Z,54.39
2023-02-14T12:47:43.831Z,53.59
2023-02-14T12:50:38.891Z,53.81
2023-02-14T12:53:38.759Z,54.10
2023-02-14T12:56:25.267Z,54.52
2023-02-14T12:59:07.095Z,55.01
2023-02-14T13:02:07.764Z,56.19
2023-02-14T13:04:56.496Z,56.55
2023-02-14T13:07:46.442Z,56.77
2023-02-14T13:10:35.720Z,56.74
2023-02-14T13:13:23.454Z,57.44
2023-02-14T13:16:08.846Z,58.42
2023-02-14T13:18:48.354Z,59.13
2023-02-14T13:21:23.872Z,60.94
2023-02-14T13:23:57.969Z,59.10
2023-02-14T13:26:31.603Z,58.97
2023-02-14T13:29:04.543Z,59.84
2023-02-14T13:35:03.062Z,61.61
2023-02-14T13:37:33.712Z,61.91
2023-02-14T13:40:09.642Z,61.34
2023-02-14T13:42:58.955Z,62.59
2023-02-14T13:45:55.029Z,63.36
2023-02-14T13:49:43.238Z,63.21
2023-02-14T14:06:10.764Z,64.58
2023-02-14T14:09:43.270Z,65.13
2023-02-14T14:12:53.747Z,65.27
2023-02-14T14:16:37.764Z,64.89
2023-02-14T14:19:53.461Z,65.71
2023-02-14T14:22:55.458Z,65.79
2023-02-14T14:25:35.866Z,66.80
2023-02-14T14:29:54.747Z,66.55
2023-02-14T14:31:32.107Z,67.03
2023-02-14T14:34:05.906Z,67.01
2023-02-14T14:50:02.912Z,69.63
2023-02-14T14:52:43.716Z,69.32
2023-02-14T14:55:49.325Z,69.45
2023-02-14T14:58:37.463Z,70.06
2023-02-14T15:01:12.957Z,69.84
2023-02-14T15:03:46.529Z,70.47
2023-02-14T15:24:19.925Z,70.61
2023-02-14T16:24:51.250Z,74.59
2023-02-14T16:27:26.161Z,75.02
2023-02-14T16:29:53.937Z,75.11
2023-02-14T16:38:49.608Z,76.28
2023-02-14T17:05:04.453Z,76.98
2023-02-14T17:12:26.312Z,77.80
2023-02-14T17:19:43.906Z,77.90
2023-02-14T17:24:15.817Z,79.24
2023-02-14T17:26:53.135Z,79.62
2023-02-14T17:29:21.782Z,79.24
2023-02-14T17:31:49.868Z,79.23
2023-02-14T17:34:17.222Z,79.32
2023-02-14T17:41:44.763Z,79.66
2023-02-14T17:48:03.606Z,79.63
2023-02-14T17:50:34.232Z,79.84
2023-02-14T17:53:01.838Z,80.26
2023-02-14T17:55:28.722Z,79.83
2023-02-14T17:57:55.784Z,79.96
2023-02-14T18:00:25.071Z,79.79
2023-02-14T18:49:15.933Z,81.30
2023-02-14T18:52:44.644Z,81.59
2023-02-14T18:55:11.572Z,81.49
2023-02-14T18:57:49.253Z,81.15
2023-02-14T19:00:58.550Z,81.48
2023-02-14T19:03:51.538Z,81.45
2023-02-14T19:06:28.797Z,81.90
2023-02-14T19:09:04.478Z,81.75
2023-02-14T19:11:32.472Z,82.30
2023-02-14T19:14:02.115Z,82.09
2023-02-14T19:16:33.692Z,82.16
2023-02-14T19:19:07.207Z,81.99
2023-02-14T19:24:36.391Z,82.09
2023-02-14T19:27:04.666Z,81.99
2023-02-14T19:29:31.486Z,82.06
2023-02-14T19:32:01.694Z,82.23
2023-02-14T19:35:07.744Z,82.89
2023-02-14T19:37:48.948Z,82.39
2023-02-14T19:40:19.960Z,82.44
2023-02-14T19:43:45.047Z,82.34
2023-02-14T19:47:46.546Z,82.27
2023-02-14T19:55:21.483Z,83.34
2023-02-14T20:05:56.048Z,82.65
2023-02-14T20:16:45.506Z,82.91
2023-02-14T20:19:16.347Z,83.71
2023-02-14T20:26:38.748Z,86.28
2023-02-14T20:29:07.389Z,86.89
2023-02-14T20:31:34.809Z,86.76
2023-02-14T20:34:03.840Z,86.97
2023-02-14T20:36:31.237Z,87.61
2023-02-14T20:39:04.413Z,88.34
2023-02-14T20:41:32.794Z,88.58
2023-02-14T20:44:38.097Z,89.51
2023-02-14T20:51:19.676Z,88.83
2023-02-14T20:53:48.543Z,88.97
2023-02-14T20:56:16.847Z,89.60
2023-02-14T20:58:44.067Z,89.57
2023-02-14T21:01:14.407Z,89.87
2023-02-14T21:03:44.380Z,89.58
2023-02-14T21:06:11.513Z,89.26
2023-02-14T21:08:39.901Z,88.45
2023-02-14T21:11:10.416Z,87.87
2023-02-14T21:13:37.956Z,86.99
2023-02-14T21:16:08.947Z,86.83
2023-02-14T21:18:38.662Z,87.21
2023-02-14T21:21:12.086Z,87.19
2023-02-14T21:23:39.291Z,88.75
2023-02-14T21:26:07.893Z,89.69
2023-02-14T21:28:34.759Z,90.44
2023-02-14T21:31:06.276Z,90.80
2023-02-14T21:33:34.711Z,90.83
2023-02-14T21:36:06.787Z,90.59
2023-02-14T21:38:37.068Z,90.16
2023-02-14T21:41:08.258Z,90.86
2023-02-14T21:43:39.922Z,91.27
2023-02-14T21:46:09.958Z,91.52
2023-02-14T21:48:38.291Z,91.68
2023-02-14T21:51:06.606Z,91.61
2023-02-14T21:53:33.724Z,91.53
2023-02-14T21:56:06.181Z,91.50
2023-02-14T21:58:35.527Z,91.79
2023-02-14T22:01:02.632Z,92.13
2023-02-14T22:03:29.721Z,92.46
2023-02-14T22:06:02.753Z,92.23
2023-02-14T22:08:32.801Z,92.00
2023-02-14T22:11:04.443Z,91.45
2023-02-14T22:13:31.624Z,90.28
2023-02-14T22:16:04.831Z,89.68
2023-02-14T22:18:32.721Z,89.82
2023-02-14T22:21:00.909Z,90.79
2023-02-14T22:23:32.467Z,91.46
2023-02-14T22:26:09.611Z,91.20
2023-02-14T22:28:37.278Z,91.96
2023-02-14T22:31:06.895Z,92.28
2023-02-14T22:33:36.025Z,92.40
2023-02-14T22:36:06.080Z,92.66
2023-02-14T22:38:33.325Z,92.79
2023-02-14T22:41:05.885Z,92.80
2023-02-14T22:43:33.952Z,92.49
2023-02-14T22:46:05.276Z,92.33
2023-02-14T22:48:33.477Z,92.66
2023-02-14T22:51:09.018Z,92.98
2023-02-14T22:53:36.266Z,92.81
2023-02-14T22:56:12.660Z,92.96
2023-02-14T22:58:40.113Z,93.14
2023-02-14T23:01:13.257Z,93.70
2023-02-14T23:03:40.214Z,94.77
2023-02-14T23:06:07.188Z,95.09
2023-02-14T23:08:34.350Z,95.32
2023-02-14T23:11:08.405Z,95.12
2023-02-14T23:13:36.073Z,95.57
2023-02-14T23:16:03.608Z,95.61
2023-02-14T23:18:32.103Z,95.43
2023-02-14T23:20:59.098Z,94.50
2023-02-14T23:23:30.926Z,94.06
2023-02-14T23:25:58.168Z,94.01
2023-02-14T23:28:25.612Z,94.05
2023-02-14T23:30:52.959Z,94.48
2023-02-14T23:33:19.992Z,94.42
2023-02-14T23:35:48.238Z,94.72
2023-02-14T23:38:15.090Z,94.25
2023-02-14T23:40:41.869Z,94.40
2023-02-14T23:43:08.810Z,94.27
2023-02-14T23:45:35.674Z,94.09
2023-02-14T23:48:04.333Z,94.07
2023-02-14T23:50:31.445Z,93.95
2023-02-14T23:53:00.265Z,94.49
2023-02-14T23:55:27.147Z,94.90
2023-02-14T23:57:53.976Z,94.70
